Sulphur Bluff, Texas
Current Conditions -  °F | °C
As of 2:35 PM on Saturday 25 Oct 2014 (Local Time) from KSLR Reporting Station
Clear Clear  
Wind Chill: 86°   Ceiling: Unl
Heat Index: 86°   Visibility: 10mi
Dew Point: 60°   Wind: 6mph
Humidity: 41%   Direction: 240°WSW
Pressure: 30.1"   Gusts: NA
Location:  33.33°N, 95.4°W
Report Text: KSLR 251935Z AUTO 24005KT 10SM CLR 30/15 A3010 RMK AO2 T02980154
Loading
Personal Weather Stations






























Interactive Weather Map
Tropical Storm Tracking
New forecast layout! Learn more

10-Day Weather Forecast

Advertisements
Track Severe Weather on mobile